sensor_id;sensor_type;location;lat;lon;timestamp;pressure;altitude;pressure_sealevel;temperature;humidity
76590;BME280;65471;55.908;37.880;2023-08-06T00:02:05;100092.22;;;18.92;88.07
76590;BME280;65471;55.908;37.880;2023-08-06T00:04:32;100098.78;;;18.91;88.45
76590;BME280;65471;55.908;37.880;2023-08-06T00:06:59;100099.06;;;18.89;88.36
76590;BME280;65471;55.908;37.880;2023-08-06T00:09:26;100096.84;;;18.86;88.37
76590;BME280;65471;55.908;37.880;2023-08-06T00:11:53;100094.13;;;18.86;88.44
76590;BME280;65471;55.908;37.880;2023-08-06T00:14:20;100094.41;;;18.85;88.41
76590;BME280;65471;55.908;37.880;2023-08-06T00:16:47;100089.19;;;18.83;88.38
76590;BME280;65471;55.908;37.880;2023-08-06T00:19:14;100090.28;;;18.82;88.42
76590;BME280;65471;55.908;37.880;2023-08-06T00:21:41;100098.50;;;18.82;88.42
76590;BME280;65471;55.908;37.880;2023-08-06T00:24:08;100087.03;;;18.80;88.34
76590;BME280;65471;55.908;37.880;2023-08-06T00:26:35;100094.13;;;18.81;88.42
76590;BME280;65471;55.908;37.880;2023-08-06T00:29:02;100091.94;;;18.78;88.62
76590;BME280;65471;55.908;37.880;2023-08-06T00:31:29;100084.84;;;18.77;88.55
76590;BME280;65471;55.908;37.880;2023-08-06T00:33:56;100081.25;;;18.76;88.73
76590;BME280;65471;55.908;37.880;2023-08-06T00:36:23;100096.88;;;18.76;88.83
76590;BME280;65471;55.908;37.880;2023-08-06T00:38:49;100090.84;;;18.74;88.77
76590;BME280;65471;55.908;37.880;2023-08-06T00:41:16;100095.25;;;18.75;88.85
76590;BME280;65471;55.908;37.880;2023-08-06T00:43:43;100088.13;;;18.74;88.87
76590;BME280;65471;55.908;37.880;2023-08-06T00:46:10;100093.59;;;18.74;88.84
76590;BME280;65471;55.908;37.880;2023-08-06T00:48:37;100088.13;;;18.74;88.85
76590;BME280;65471;55.908;37.880;2023-08-06T00:51:05;100097.72;;;18.71;89.04
76590;BME280;65471;55.908;37.880;2023-08-06T00:53:32;100100.47;;;18.71;89.04
76590;BME280;65471;55.908;37.880;2023-08-06T00:55:59;100102.13;;;18.67;88.90
76590;BME280;65471;55.908;37.880;2023-08-06T00:58:26;100118.28;;;18.69;88.99
76590;BME280;65471;55.908;37.880;2023-08-06T01:00:53;100114.97;;;18.67;88.97
76590;BME280;65471;55.908;37.880;2023-08-06T01:03:20;100104.31;;;18.65;89.13
76590;BME280;65471;55.908;37.880;2023-08-06T01:05:48;100095.84;;;18.61;89.07
76590;BME280;65471;55.908;37.880;2023-08-06T01:11:04;100109.81;;;18.60;89.15
76590;BME280;65471;55.908;37.880;2023-08-06T01:13:42;100111.47;;;18.56;89.42
76590;BME280;65471;55.908;37.880;2023-08-06T01:16:11;100104.59;;;18.53;89.47
76590;BME280;65471;55.908;37.880;2023-08-06T01:18:40;100112.81;;;18.53;89.48
76590;BME280;65471;55.908;37.880;2023-08-06T01:21:08;100106.78;;;18.51;89.56
76590;BME280;65471;55.908;37.880;2023-08-06T01:23:39;100103.25;;;18.51;89.56
76590;BME280;65471;55.908;37.880;2023-08-06T01:26:23;100106.25;;;18.49;89.63
76590;BME280;65471;55.908;37.880;2023-08-06T01:31:43;100103.50;;;18.44;89.95
76590;BME280;65471;55.908;37.880;2023-08-06T01:34:19;100104.88;;;18.46;89.95
76590;BME280;65471;55.908;37.880;2023-08-06T01:36:47;100113.38;;;18.45;89.94
76590;BME280;65471;55.908;37.880;2023-08-06T01:39:14;100115.59;;;18.43;89.84
76590;BME280;65471;55.908;37.880;2023-08-06T01:41:41;100117.19;;;18.44;89.97
76590;BME280;65471;55.908;37.880;2023-08-06T01:44:08;100119.94;;;18.44;89.87
76590;BME280;65471;55.908;37.880;2023-08-06T01:46:35;100117.19;;;18.44;89.93
76590;BME280;65471;55.908;37.880;2023-08-06T01:49:02;100121.88;;;18.43;89.93
76590;BME280;65471;55.908;37.880;2023-08-06T01:51:29;100128.72;;;18.41;89.92
76590;BME280;65471;55.908;37.880;2023-08-06T01:53:56;100130.63;;;18.40;90.22
76590;BME280;65471;55.908;37.880;2023-08-06T01:56:23;100127.63;;;18.42;90.18
76590;BME280;65471;55.908;37.880;2023-08-06T01:58:50;100122.44;;;18.40;90.10
76590;BME280;65471;55.908;37.880;2023-08-06T02:01:17;100125.16;;;18.40;90.08
76590;BME280;65471;55.908;37.880;2023-08-06T02:03:44;100125.72;;;18.37;90.16
76590;BME280;65471;55.908;37.880;2023-08-06T02:06:11;100132.81;;;18.38;90.21
76590;BME280;65471;55.908;37.880;2023-08-06T02:08:38;100135.56;;;18.38;90.29
76590;BME280;65471;55.908;37.880;2023-08-06T02:11:06;100138.28;;;18.38;90.22
76590;BME280;65471;55.908;37.880;2023-08-06T02:13:33;100140.22;;;18.38;90.21
76590;BME280;65471;55.908;37.880;2023-08-06T02:16:00;100136.41;;;18.39;90.27
76590;BME280;65471;55.908;37.880;2023-08-06T02:18:27;100149.81;;;18.40;90.21
76590;BME280;65471;55.908;37.880;2023-08-06T02:20:58;100133.38;;;18.40;90.16
76590;BME280;65471;55.908;37.880;2023-08-06T02:23:26;100145.13;;;18.41;90.18
76590;BME280;65471;55.908;37.880;2023-08-06T02:25:58;100141.88;;;18.39;90.46
76590;BME280;65471;55.908;37.880;2023-08-06T02:28:25;100138.56;;;18.37;90.31
76590;BME280;65471;55.908;37.880;2023-08-06T02:30:52;100140.22;;;18.38;90.32
76590;BME280;65471;55.908;37.880;2023-08-06T02:33:19;100135.56;;;18.38;90.51
76590;BME280;65471;55.908;37.880;2023-08-06T02:35:46;100144.03;;;18.37;90.36
76590;BME280;65471;55.908;37.880;2023-08-06T02:38:13;100146.78;;;18.42;90.42
76590;BME280;65471;55.908;37.880;2023-08-06T02:40:46;100139.38;;;18.42;90.47
76590;BME280;65471;55.908;37.880;2023-08-06T02:43:13;100145.69;;;18.43;90.86
76590;BME280;65471;55.908;37.880;2023-08-06T02:45:41;100140.75;;;18.45;90.44
76590;BME280;65471;55.908;37.880;2023-08-06T02:48:08;100139.94;;;18.44;90.50
76590;BME280;65471;55.908;37.880;2023-08-06T02:50:39;100147.06;;;18.45;90.55
76590;BME280;65471;55.908;37.880;2023-08-06T02:53:07;100144.06;;;18.47;90.50
76590;BME280;65471;55.908;37.880;2023-08-06T02:55:34;100141.59;;;18.45;90.65
76590;BME280;65471;55.908;37.880;2023-08-06T02:58:01;100136.66;;;18.48;90.69
76590;BME280;65471;55.908;37.880;2023-08-06T03:00:29;100131.72;;;18.50;90.53
76590;BME280;65471;55.908;37.880;2023-08-06T03:02:55;100135.81;;;18.52;90.51
76590;BME280;65471;55.908;37.880;2023-08-06T03:05:22;100144.59;;;18.54;90.55
76590;BME280;65471;55.908;37.880;2023-08-06T03:07:49;100133.38;;;18.56;90.57
76590;BME280;65471;55.908;37.880;2023-08-06T03:10:16;100134.75;;;18.58;90.53
76590;BME280;65471;55.908;37.880;2023-08-06T03:12:44;100138.81;;;18.61;90.58
76590;BME280;65471;55.908;37.880;2023-08-06T03:15:11;100136.34;;;18.65;90.52
76590;BME280;65471;55.908;37.880;2023-08-06T03:17:38;100134.16;;;18.67;90.59
76590;BME280;65471;55.908;37.880;2023-08-06T03:20:06;100128.38;;;18.68;90.45
76590;BME280;65471;55.908;37.880;2023-08-06T03:22:33;100137.97;;;18.71;90.41
76590;BME280;65471;55.908;37.880;2023-08-06T03:24:59;100139.34;;;18.73;90.36
76590;BME280;65471;55.908;37.880;2023-08-06T03:27:30;100140.72;;;18.76;90.49
76590;BME280;65471;55.908;37.880;2023-08-06T03:29:57;100147.28;;;18.80;90.34
76590;BME280;65471;55.908;37.880;2023-08-06T03:32:24;100142.91;;;18.84;90.37
76590;BME280;65471;55.908;37.880;2023-08-06T03:34:51;100135.22;;;18.86;90.27
76590;BME280;65471;55.908;37.880;2023-08-06T03:37:18;100136.34;;;18.90;90.27
76590;BME280;65471;55.908;37.880;2023-08-06T03:39:45;100126.47;;;18.94;90.14
76590;BME280;65471;55.908;37.880;2023-08-06T03:42:12;100136.84;;;18.97;89.94
76590;BME280;65471;55.908;37.880;2023-08-06T03:44:38;100143.94;;;19.04;90.16
76590;BME280;65471;55.908;37.880;2023-08-06T03:47:06;100157.66;;;19.09;90.02
76590;BME280;65471;55.908;37.880;2023-08-06T03:49:33;100142.84;;;19.10;90.13
76590;BME280;65471;55.908;37.880;2023-08-06T03:51:59;100138.16;;;19.16;90.11
76590;BME280;65471;55.908;37.880;2023-08-06T03:54:26;100127.16;;;19.21;90.04
76590;BME280;65471;55.908;37.880;2023-08-06T03:56:53;100132.63;;;19.26;89.99
76590;BME280;65471;55.908;37.880;2023-08-06T03:59:20;100136.47;;;19.30;89.85
76590;BME280;65471;55.908;37.880;2023-08-06T04:01:47;100129.84;;;19.36;89.89
76590;BME280;65471;55.908;37.880;2023-08-06T04:04:14;100135.03;;;19.43;89.81
76590;BME280;65471;55.908;37.880;2023-08-06T04:06:41;100128.41;;;19.49;89.77
76590;BME280;65471;55.908;37.880;2023-08-06T04:09:08;100118.50;;;19.53;89.63
76590;BME280;65471;55.908;37.880;2023-08-06T04:11:35;100119.59;;;19.57;89.50
76590;BME280;65471;55.908;37.880;2023-08-06T04:14:02;100134.34;;;19.66;89.92
76590;BME280;65471;55.908;37.880;2023-08-06T04:16:29;100123.59;;;19.75;89.35
76590;BME280;65471;55.908;37.880;2023-08-06T04:18:56;100124.94;;;19.83;89.21
76590;BME280;65471;55.908;37.880;2023-08-06T04:21:23;100128.69;;;19.92;88.86
76590;BME280;65471;55.908;37.880;2023-08-06T04:23:50;100122.91;;;19.99;88.93
76590;BME280;65471;55.908;37.880;2023-08-06T04:26:17;100127.78;;;20.07;88.65
76590;BME280;65471;55.908;37.880;2023-08-06T04:28:43;100123.59;;;20.15;88.50
76590;BME280;65471;55.908;37.880;2023-08-06T04:31:10;100130.13;;;20.24;88.45
76590;BME280;65471;55.908;37.880;2023-08-06T04:33:37;100127.84;;;20.31;88.39
76590;BME280;65471;55.908;37.880;2023-08-06T04:36:04;100128.34;;;20.39;88.11
76590;BME280;65471;55.908;37.880;2023-08-06T04:38:31;100140.34;;;20.48;87.76
76590;BME280;65471;55.908;37.880;2023-08-06T04:40:58;100129.00;;;20.55;87.72
76590;BME280;65471;55.908;37.880;2023-08-06T04:43:25;100136.63;;;20.63;88.19
76590;BME280;65471;55.908;37.880;2023-08-06T04:45:54;100125.34;;;20.69;87.81
76590;BME280;65471;55.908;37.880;2023-08-06T04:48:22;100129.38;;;20.77;87.61
76590;BME280;65471;55.908;37.880;2023-08-06T04:50:50;100130.38;;;20.86;87.36
76590;BME280;65471;55.908;37.880;2023-08-06T04:53:17;100120.66;;;20.94;87.21
76590;BME280;65471;55.908;37.880;2023-08-06T04:55:44;100121.13;;;21.01;86.88
76590;BME280;65471;55.908;37.880;2023-08-06T04:58:12;100126.28;;;21.08;87.01
76590;BME280;65471;55.908;37.880;2023-08-06T05:00:39;100128.13;;;21.13;86.71
76590;BME280;65471;55.908;37.880;2023-08-06T05:03:06;100123.91;;;21.20;86.49
76590;BME280;65471;55.908;37.880;2023-08-06T05:05:34;100123.56;;;21.27;86.33
76590;BME280;65471;55.908;37.880;2023-08-06T05:08:01;100124.84;;;21.35;86.64
76590;BME280;65471;55.908;37.880;2023-08-06T05:10:28;100122.84;;;21.41;86.42
76590;BME280;65471;55.908;37.880;2023-08-06T05:12:55;100123.59;;;21.46;86.32
76590;BME280;65471;55.908;37.880;2023-08-06T05:15:22;100114.19;;;21.52;86.34
76590;BME280;65471;55.908;37.880;2023-08-06T05:17:49;100123.09;;;21.63;86.15
76590;BME280;65471;55.908;37.880;2023-08-06T05:20:16;100106.34;;;21.79;85.89
76590;BME280;65471;55.908;37.880;2023-08-06T05:22:43;100105.91;;;21.91;85.36
76590;BME280;65471;55.908;37.880;2023-08-06T05:25:13;100110.94;;;22.02;85.00
76590;BME280;65471;55.908;37.880;2023-08-06T05:27:40;100108.31;;;22.11;84.89
76590;BME280;65471;55.908;37.880;2023-08-06T05:30:08;100098.47;;;22.24;84.21
76590;BME280;65471;55.908;37.880;2023-08-06T05:32:35;100109.25;;;22.39;82.96
76590;BME280;65471;55.908;37.880;2023-08-06T05:35:02;100106.22;;;22.55;81.99
76590;BME280;65471;55.908;37.880;2023-08-06T05:37:30;100102.16;;;22.66;81.57
76590;BME280;65471;55.908;37.880;2023-08-06T05:39:57;100102.75;;;22.77;81.25
76590;BME280;65471;55.908;37.880;2023-08-06T05:42:24;100096.84;;;22.84;81.05
76590;BME280;65471;55.908;37.880;2023-08-06T05:44:51;100109.69;;;22.88;80.82
76590;BME280;65471;55.908;37.880;2023-08-06T05:47:18;100110.09;;;22.96;80.05
76590;BME280;65471;55.908;37.880;2023-08-06T05:49:46;100101.84;;;23.09;79.26
76590;BME280;65471;55.908;37.880;2023-08-06T05:52:13;100100.84;;;23.19;78.84
76590;BME280;65471;55.908;37.880;2023-08-06T05:54:40;100103.78;;;23.23;79.13
76590;BME280;65471;55.908;37.880;2023-08-06T05:57:07;100105.09;;;23.25;79.18
76590;BME280;65471;55.908;37.880;2023-08-06T05:59:34;100104.06;;;23.35;79.03
76590;BME280;65471;55.908;37.880;2023-08-06T06:02:01;100097.84;;;23.43;78.63
76590;BME280;65471;55.908;37.880;2023-08-06T06:04:28;100096.56;;;23.50;78.86
76590;BME280;65471;55.908;37.880;2023-08-06T06:06:55;100093.72;;;23.55;78.60
76590;BME280;65471;55.908;37.880;2023-08-06T06:09:22;100091.34;;;23.62;78.25
76590;BME280;65471;55.908;37.880;2023-08-06T06:11:49;100099.06;;;23.74;77.75
76590;BME280;65471;55.908;37.880;2023-08-06T06:14:17;100087.00;;;23.70;77.89
76590;BME280;65471;55.908;37.880;2023-08-06T06:16:45;100090.66;;;23.79;77.95
76590;BME280;65471;55.908;37.880;2023-08-06T06:19:12;100089.50;;;23.94;77.68
76590;BME280;65471;55.908;37.880;2023-08-06T06:21:39;100085.34;;;24.05;77.28
76590;BME280;65471;55.908;37.880;2023-08-06T06:24:06;100088.38;;;24.18;76.78
76590;BME280;65471;55.908;37.880;2023-08-06T06:26:34;100090.00;;;24.19;77.05
76590;BME280;65471;55.908;37.880;2023-08-06T06:29:01;100097.25;;;24.37;76.16
76590;BME280;65471;55.908;37.880;2023-08-06T06:31:29;100091.47;;;24.47;75.68
76590;BME280;65471;55.908;37.880;2023-08-06T06:33:56;100081.16;;;24.62;74.33
76590;BME280;65471;55.908;37.880;2023-08-06T06:36:23;100087.69;;;24.75;72.64
76590;BME280;65471;55.908;37.880;2023-08-06T06:38:50;100089.38;;;24.85;72.75
76590;BME280;65471;55.908;37.880;2023-08-06T06:41:17;100091.34;;;24.93;71.83
76590;BME280;65471;55.908;37.880;2023-08-06T06:43:44;100089.59;;;25.06;71.80
76590;BME280;65471;55.908;37.880;2023-08-06T06:46:11;100098.91;;;25.19;71.21
76590;BME280;65471;55.908;37.880;2023-08-06T06:48:38;100093.84;;;25.29;71.39
76590;BME280;65471;55.908;37.880;2023-08-06T06:51:05;100087.41;;;25.43;71.24
76590;BME280;65471;55.908;37.880;2023-08-06T06:53:33;100087.09;;;25.53;70.57
76590;BME280;65471;55.908;37.880;2023-08-06T06:56:04;100083.19;;;25.72;69.77
76590;BME280;65471;55.908;37.880;2023-08-06T06:58:32;100080.25;;;25.86;68.20
76590;BME280;65471;55.908;37.880;2023-08-06T07:00:59;100090.34;;;25.81;68.09
76590;BME280;65471;55.908;37.880;2023-08-06T07:03:26;100081.22;;;25.98;68.50
76590;BME280;65471;55.908;37.880;2023-08-06T07:05:57;100081.06;;;26.12;65.63
76590;BME280;65471;55.908;37.880;2023-08-06T07:08:25;100077.91;;;26.31;64.59
76590;BME280;65471;55.908;37.880;2023-08-06T07:11:00;100074.72;;;26.50;64.25
76590;BME280;65471;55.908;37.880;2023-08-06T07:13:28;100074.34;;;26.61;64.32
76590;BME280;65471;55.908;37.880;2023-08-06T07:15:55;100077.47;;;26.68;64.10
76590;BME280;65471;55.908;37.880;2023-08-06T07:18:23;100074.84;;;26.72;64.92
76590;BME280;65471;55.908;37.880;2023-08-06T07:20:51;100070.59;;;26.74;64.83
76590;BME280;65471;55.908;37.880;2023-08-06T07:23:21;100067.78;;;26.83;64.54
76590;BME280;65471;55.908;37.880;2023-08-06T07:25:48;100064.31;;;26.86;64.53
76590;BME280;65471;55.908;37.880;2023-08-06T07:28:15;100064.59;;;26.93;63.40
76590;BME280;65471;55.908;37.880;2023-08-06T07:30:44;100064.88;;;27.00;62.21
76590;BME280;65471;55.908;37.880;2023-08-06T07:33:11;100068.44;;;27.10;61.46
76590;BME280;65471;55.908;37.880;2023-08-06T07:35:39;100055.66;;;27.17;61.71
76590;BME280;65471;55.908;37.880;2023-08-06T07:38:06;100069.47;;;27.26;62.53
76590;BME280;65471;55.908;37.880;2023-08-06T07:40:35;100074.03;;;27.31;61.65
76590;BME280;65471;55.908;37.880;2023-08-06T07:43:03;100056.03;;;27.37;61.31
76590;BME280;65471;55.908;37.880;2023-08-06T07:45:34;100051.56;;;27.45;61.39
76590;BME280;65471;55.908;37.880;2023-08-06T07:48:02;100057.72;;;27.50;59.89
76590;BME280;65471;55.908;37.880;2023-08-06T07:50:29;100057.78;;;27.63;59.62
76590;BME280;65471;55.908;37.880;2023-08-06T07:52:56;100052.38;;;27.66;60.31
76590;BME280;65471;55.908;37.880;2023-08-06T07:55:23;100057.25;;;27.69;60.85
76590;BME280;65471;55.908;37.880;2023-08-06T07:57:50;100051.19;;;27.67;60.84
76590;BME280;65471;55.908;37.880;2023-08-06T08:00:17;100050.50;;;27.70;60.43
76590;BME280;65471;55.908;37.880;2023-08-06T08:02:45;100052.63;;;27.73;60.96
76590;BME280;65471;55.908;37.880;2023-08-06T08:05:13;100054.84;;;27.80;60.11
76590;BME280;65471;55.908;37.880;2023-08-06T08:07:40;100050.81;;;27.90;59.11
76590;BME280;65471;55.908;37.880;2023-08-06T08:10:07;100053.06;;;27.97;59.06
76590;BME280;65471;55.908;37.880;2023-08-06T08:12:34;100055.53;;;27.98;60.02
76590;BME280;65471;55.908;37.880;2023-08-06T08:15:01;100046.97;;;28.03;59.21
76590;BME280;65471;55.908;37.880;2023-08-06T08:17:29;100045.25;;;28.11;58.80
76590;BME280;65471;55.908;37.880;2023-08-06T08:19:56;100042.25;;;28.16;58.01
76590;BME280;65471;55.908;37.880;2023-08-06T08:22:23;100042.84;;;28.22;57.48
76590;BME280;65471;55.908;37.880;2023-08-06T08:24:50;100038.34;;;28.30;56.90
76590;BME280;65471;55.908;37.880;2023-08-06T08:27:17;100032.91;;;28.33;56.90
76590;BME280;65471;55.908;37.880;2023-08-06T08:29:44;100039.25;;;28.34;57.15
76590;BME280;65471;55.908;37.880;2023-08-06T08:32:11;100042.63;;;28.39;56.29
76590;BME280;65471;55.908;37.880;2023-08-06T08:34:38;100040.88;;;28.47;56.53
76590;BME280;65471;55.908;37.880;2023-08-06T08:37:05;100027.47;;;28.49;56.73
76590;BME280;65471;55.908;37.880;2023-08-06T08:39:32;100026.75;;;28.52;56.04
76590;BME280;65471;55.908;37.880;2023-08-06T08:41:59;100026.66;;;28.61;55.79
76590;BME280;65471;55.908;37.880;2023-08-06T08:44:29;100034.56;;;28.71;55.30
76590;BME280;65471;55.908;37.880;2023-08-06T08:46:59;100023.56;;;28.75;54.59
76590;BME280;65471;55.908;37.880;2023-08-06T08:49:26;100028.06;;;28.67;55.19
76590;BME280;65471;55.908;37.880;2023-08-06T08:51:54;100025.53;;;28.62;55.72
76590;BME280;65471;55.908;37.880;2023-08-06T08:54:23;100018.69;;;28.72;56.46
76590;BME280;65471;55.908;37.880;2023-08-06T08:56:50;100026.69;;;28.73;56.05
76590;BME280;65471;55.908;37.880;2023-08-06T08:59:17;100027.72;;;28.81;55.75
76590;BME280;65471;55.908;37.880;2023-08-06T09:01:46;100023.53;;;28.87;55.70
76590;BME280;65471;55.908;37.880;2023-08-06T09:04:18;100020.38;;;29.01;55.10
76590;BME280;65471;55.908;37.880;2023-08-06T09:06:47;100016.78;;;29.13;54.26
76590;BME280;65471;55.908;37.880;2023-08-06T09:09:25;100022.56;;;29.20;53.10
76590;BME280;65471;55.908;37.880;2023-08-06T09:11:55;100026.81;;;29.30;52.68
76590;BME280;65471;55.908;37.880;2023-08-06T09:14:26;100013.59;;;29.39;51.61
76590;BME280;65471;55.908;37.880;2023-08-06T09:16:54;100018.44;;;29.42;52.46
76590;BME280;65471;55.908;37.880;2023-08-06T09:19:21;100018.91;;;29.44;52.77
76590;BME280;65471;55.908;37.880;2023-08-06T09:21:51;100011.91;;;29.51;52.62
76590;BME280;65471;55.908;37.880;2023-08-06T09:24:18;100016.06;;;29.57;52.85
76590;BME280;65471;55.908;37.880;2023-08-06T09:26:46;100019.22;;;29.55;53.33
76590;BME280;65471;55.908;37.880;2023-08-06T09:29:13;100009.94;;;29.51;53.49
76590;BME280;65471;55.908;37.880;2023-08-06T09:31:41;100015.97;;;29.53;52.95
76590;BME280;65471;55.908;37.880;2023-08-06T09:34:20;100013.03;;;29.62;52.46
76590;BME280;65471;55.908;37.880;2023-08-06T09:36:52;100018.69;;;29.66;53.41
76590;BME280;65471;55.908;37.880;2023-08-06T09:39:30;100017.34;;;29.59;53.81
76590;BME280;65471;55.908;37.880;2023-08-06T09:41:59;100010.97;;;29.59;52.61
76590;BME280;65471;55.908;37.880;2023-08-06T09:44:27;100000.81;;;29.67;52.01
76590;BME280;65471;55.908;37.880;2023-08-06T09:46:58;99996.75;;;29.64;52.47
76590;BME280;65471;55.908;37.880;2023-08-06T09:52:00;99999.47;;;29.60;51.27
76590;BME280;65471;55.908;37.880;2023-08-06T09:54:27;99996.88;;;29.68;52.23
76590;BME280;65471;55.908;37.880;2023-08-06T09:56:56;99997.66;;;29.68;52.88
76590;BME280;65471;55.908;37.880;2023-08-06T09:59:24;99986.28;;;29.73;51.95
76590;BME280;65471;55.908;37.880;2023-08-06T10:01:51;99982.66;;;29.73;52.45
76590;BME280;65471;55.908;37.880;2023-08-06T10:04:19;99985.44;;;29.73;52.15
76590;BME280;65471;55.908;37.880;2023-08-06T10:06:52;99977.56;;;29.75;52.85
76590;BME280;65471;55.908;37.880;2023-08-06T10:09:19;99971.50;;;29.73;53.10
76590;BME280;65471;55.908;37.880;2023-08-06T10:11:51;99966.16;;;29.80;52.28
76590;BME280;65471;55.908;37.880;2023-08-06T10:14:28;99959.72;;;29.92;51.61
76590;BME280;65471;55.908;37.880;2023-08-06T10:16:57;99967.34;;;29.95;52.78
76590;BME280;65471;55.908;37.880;2023-08-06T10:19:26;99962.22;;;29.97;52.56
76590;BME280;65471;55.908;37.880;2023-08-06T10:24:52;99956.56;;;30.25;51.56
76590;BME280;65471;55.908;37.880;2023-08-06T10:32:54;99952.78;;;30.85;49.54
76590;BME280;65471;55.908;37.880;2023-08-06T10:38:17;99946.13;;;30.54;53.05
76590;BME280;65471;55.908;37.880;2023-08-06T10:41:00;99946.72;;;30.63;51.84
76590;BME280;65471;55.908;37.880;2023-08-06T10:43:35;99944.38;;;30.66;51.17
76590;BME280;65471;55.908;37.880;2023-08-06T10:46:10;99949.44;;;30.60;50.87
76590;BME280;65471;55.908;37.880;2023-08-06T10:48:38;99942.69;;;30.61;51.18
76590;BME280;65471;55.908;37.880;2023-08-06T10:51:12;99939.09;;;30.60;51.15
76590;BME280;65471;55.908;37.880;2023-08-06T10:53:46;99932.88;;;30.51;51.30
76590;BME280;65471;55.908;37.880;2023-08-06T10:56:23;99942.63;;;30.41;53.23
76590;BME280;65471;55.908;37.880;2023-08-06T10:58:51;99936.31;;;30.28;51.65
76590;BME280;65471;55.908;37.880;2023-08-06T11:01:18;99944.88;;;30.20;51.66
76590;BME280;65471;55.908;37.880;2023-08-06T11:03:46;99936.13;;;30.21;51.57
76590;BME280;65471;55.908;37.880;2023-08-06T11:06:18;99932.28;;;30.26;50.61
76590;BME280;65471;55.908;37.880;2023-08-06T11:08:53;99932.97;;;30.23;50.69
76590;BME280;65471;55.908;37.880;2023-08-06T11:11:22;99924.91;;;30.18;50.66
76590;BME280;65471;55.908;37.880;2023-08-06T11:13:50;99927.06;;;30.24;49.59
76590;BME280;65471;55.908;37.880;2023-08-06T11:16:22;99926.94;;;30.37;50.04
76590;BME280;65471;55.908;37.880;2023-08-06T11:18:53;99934.88;;;30.35;52.67
76590;BME280;65471;55.908;37.880;2023-08-06T11:21:21;99921.34;;;30.69;51.38
76590;BME280;65471;55.908;37.880;2023-08-06T11:23:49;99933.69;;;30.87;49.64
76590;BME280;65471;55.908;37.880;2023-08-06T11:26:22;99928.75;;;30.80;50.38
76590;BME280;65471;55.908;37.880;2023-08-06T11:28:52;99921.69;;;30.67;51.17
76590;BME280;65471;55.908;37.880;2023-08-06T11:31:22;99916.47;;;30.66;50.84
76590;BME280;65471;55.908;37.880;2023-08-06T11:33:51;99924.50;;;30.67;51.29
76590;BME280;65471;55.908;37.880;2023-08-06T11:36:29;99911.13;;;31.55;49.04
76590;BME280;65471;55.908;37.880;2023-08-06T11:39:00;99920.47;;;32.89;47.48
76590;BME280;65471;55.908;37.880;2023-08-06T11:41:28;99911.84;;;34.18;43.75
76590;BME280;65471;55.908;37.880;2023-08-06T11:43:56;99920.78;;;34.97;42.72
76590;BME280;65471;55.908;37.880;2023-08-06T11:46:23;99911.91;;;34.91;43.24
76590;BME280;65471;55.908;37.880;2023-08-06T11:48:59;99908.25;;;34.21;44.49
76590;BME280;65471;55.908;37.880;2023-08-06T11:51:26;99904.56;;;33.27;45.07
76590;BME280;65471;55.908;37.880;2023-08-06T11:53:57;99906.16;;;32.67;46.18
76590;BME280;65471;55.908;37.880;2023-08-06T11:56:25;99910.72;;;32.22;45.76
76590;BME280;65471;55.908;37.880;2023-08-06T11:58:54;99906.25;;;31.94;45.57
76590;BME280;65471;55.908;37.880;2023-08-06T12:01:21;99902.34;;;31.76;46.08
76590;BME280;65471;55.908;37.880;2023-08-06T12:03:48;99903.38;;;31.67;45.45
76590;BME280;65471;55.908;37.880;2023-08-06T12:06:16;99892.84;;;31.57;46.10
76590;BME280;65471;55.908;37.880;2023-08-06T12:08:42;99897.31;;;31.42;46.64
76590;BME280;65471;55.908;37.880;2023-08-06T12:11:09;99887.59;;;31.13;49.68
76590;BME280;65471;55.908;37.880;2023-08-06T12:13:36;99896.22;;;30.88;50.62
76590;BME280;65471;55.908;37.880;2023-08-06T12:16:03;99882.78;;;30.74;51.05
76590;BME280;65471;55.908;37.880;2023-08-06T12:18:30;99886.88;;;30.61;51.65
76590;BME280;65471;55.908;37.880;2023-08-06T12:20:57;99884.75;;;30.54;49.54
76590;BME280;65471;55.908;37.880;2023-08-06T12:23:25;99886.50;;;30.62;49.15
76590;BME280;65471;55.908;37.880;2023-08-06T12:25:51;99888.00;;;30.76;49.85
76590;BME280;65471;55.908;37.880;2023-08-06T12:28:19;99897.81;;;30.50;51.38
76590;BME280;65471;55.908;37.880;2023-08-06T12:30:49;99896.28;;;30.21;52.68
76590;BME280;65471;55.908;37.880;2023-08-06T12:33:18;99896.69;;;29.87;53.36
76590;BME280;65471;55.908;37.880;2023-08-06T12:35:45;99898.50;;;29.67;53.39
76590;BME280;65471;55.908;37.880;2023-08-06T12:38:12;99892.91;;;29.51;53.35
76590;BME280;65471;55.908;37.880;2023-08-06T12:40:40;99888.44;;;29.47;53.64
76590;BME280;65471;55.908;37.880;2023-08-06T12:43:09;99882.50;;;29.48;53.31
76590;BME280;65471;55.908;37.880;2023-08-06T12:45:36;99887.28;;;29.48;52.66
76590;BME280;65471;55.908;37.880;2023-08-06T12:48:04;99884.38;;;29.44;52.47
76590;BME280;65471;55.908;37.880;2023-08-06T12:50:31;99885.66;;;29.47;52.45
76590;BME280;65471;55.908;37.880;2023-08-06T12:53:00;99874.13;;;29.48;52.67
76590;BME280;65471;55.908;37.880;2023-08-06T12:55:27;99869.47;;;29.52;52.73
76590;BME280;65471;55.908;37.880;2023-08-06T12:57:58;99871.28;;;29.60;52.30
76590;BME280;65471;55.908;37.880;2023-08-06T13:00:28;99869.41;;;29.65;53.39
76590;BME280;65471;55.908;37.880;2023-08-06T13:02:55;99870.19;;;29.65;53.53
76590;BME280;65471;55.908;37.880;2023-08-06T13:05:22;99877.03;;;29.68;53.95
76590;BME280;65471;55.908;37.880;2023-08-06T13:07:49;99879.34;;;29.66;53.54